sensor_id;sensor_type;location;lat;lon;timestamp;P1;durP1;ratioP1;P2;durP2;ratioP2
70199;SDS011;57587;55.688;37.600;2022-12-18T00:07:00;15.38;;;8.05;;
70199;SDS011;57587;55.688;37.600;2022-12-18T00:10:54;13.05;;;6.57;;
70199;SDS011;57587;55.688;37.600;2022-12-18T00:13:48;12.93;;;7.47;;
70199;SDS011;57587;55.688;37.600;2022-12-18T00:26:02;11.88;;;5.72;;
70199;SDS011;57587;55.688;37.600;2022-12-18T00:55:51;11.10;;;6.47;;
70199;SDS011;57587;55.688;37.600;2022-12-18T01:00:20;13.63;;;6.38;;
70199;SDS011;57587;55.688;37.600;2022-12-18T01:09:13;13.95;;;6.57;;
70199;SDS011;57587;55.688;37.600;2022-12-18T01:13:14;17.30;;;6.90;;
70199;SDS011;57587;55.688;37.600;2022-12-18T01:27:42;14.07;;;6.43;;
70199;SDS011;57587;55.688;37.600;2022-12-18T01:52:14;11.68;;;6.40;;
70199;SDS011;57587;55.688;37.600;2022-12-18T02:27:11;13.02;;;6.63;;
70199;SDS011;57587;55.688;37.600;2022-12-18T02:30:33;10.70;;;6.03;;
70199;SDS011;57587;55.688;37.600;2022-12-18T02:33:53;12.80;;;6.72;;
70199;SDS011;57587;55.688;37.600;2022-12-18T02:36:59;12.63;;;7.13;;
70199;SDS011;57587;55.688;37.600;2022-12-18T02:40:10;13.20;;;6.97;;
70199;SDS011;57587;55.688;37.600;2022-12-18T02:43:15;13.35;;;6.78;;
70199;SDS011;57587;55.688;37.600;2022-12-18T03:04:44;11.63;;;6.40;;
70199;SDS011;57587;55.688;37.600;2022-12-18T03:07:21;11.20;;;5.75;;
70199;SDS011;57587;55.688;37.600;2022-12-18T03:10:00;11.75;;;6.82;;
70199;SDS011;57587;55.688;37.600;2022-12-18T03:12:32;12.60;;;6.03;;
70199;SDS011;57587;55.688;37.600;2022-12-18T03:17:46;12.05;;;6.35;;
70199;SDS011;57587;55.688;37.600;2022-12-18T03:20:19;10.90;;;6.25;;
70199;SDS011;57587;55.688;37.600;2022-12-18T03:22:50;12.25;;;6.65;;
70199;SDS011;57587;55.688;37.600;2022-12-18T03:25:20;11.47;;;6.47;;
70199;SDS011;57587;55.688;37.600;2022-12-18T03:27:53;11.23;;;6.10;;
70199;SDS011;57587;55.688;37.600;2022-12-18T03:30:24;10.95;;;5.80;;
70199;SDS011;57587;55.688;37.600;2022-12-18T03:35:48;12.43;;;6.78;;
70199;SDS011;57587;55.688;37.600;2022-12-18T03:38:17;10.73;;;6.27;;
70199;SDS011;57587;55.688;37.600;2022-12-18T03:40:56;12.75;;;7.22;;
70199;SDS011;57587;55.688;37.600;2022-12-18T03:46:29;11.38;;;6.55;;
70199;SDS011;57587;55.688;37.600;2022-12-18T03:49:13;10.63;;;6.38;;
70199;SDS011;57587;55.688;37.600;2022-12-18T03:54:32;12.27;;;5.90;;
70199;SDS011;57587;55.688;37.600;2022-12-18T03:57:16;11.88;;;6.25;;
70199;SDS011;57587;55.688;37.600;2022-12-18T03:59:50;10.10;;;5.07;;
70199;SDS011;57587;55.688;37.600;2022-12-18T04:02:40;11.20;;;5.75;;
70199;SDS011;57587;55.688;37.600;2022-12-18T04:05:16;13.60;;;8.97;;
70199;SDS011;57587;55.688;37.600;2022-12-18T04:07:46;11.10;;;6.10;;
70199;SDS011;57587;55.688;37.600;2022-12-18T04:10:16;14.63;;;5.93;;
70199;SDS011;57587;55.688;37.600;2022-12-18T04:12:45;10.55;;;5.55;;
70199;SDS011;57587;55.688;37.600;2022-12-18T04:15:13;11.52;;;5.90;;
70199;SDS011;57587;55.688;37.600;2022-12-18T04:17:48;9.70;;;5.93;;
70199;SDS011;57587;55.688;37.600;2022-12-18T04:20:20;12.68;;;5.82;;
70199;SDS011;57587;55.688;37.600;2022-12-18T04:22:48;10.43;;;5.78;;
70199;SDS011;57587;55.688;37.600;2022-12-18T04:25:17;11.27;;;5.75;;
70199;SDS011;57587;55.688;37.600;2022-12-18T04:27:56;12.07;;;6.20;;
70199;SDS011;57587;55.688;37.600;2022-12-18T04:30:23;9.27;;;5.47;;
70199;SDS011;57587;55.688;37.600;2022-12-18T04:32:50;11.98;;;6.20;;
70199;SDS011;57587;55.688;37.600;2022-12-18T04:35:19;10.65;;;5.95;;
70199;SDS011;57587;55.688;37.600;2022-12-18T04:37:46;9.60;;;5.60;;
70199;SDS011;57587;55.688;37.600;2022-12-18T04:40:14;10.98;;;5.82;;
70199;SDS011;57587;55.688;37.600;2022-12-18T04:42:45;10.20;;;5.40;;
70199;SDS011;57587;55.688;37.600;2022-12-18T04:45:12;11.77;;;5.80;;
70199;SDS011;57587;55.688;37.600;2022-12-18T04:47:39;10.93;;;5.63;;
70199;SDS011;57587;55.688;37.600;2022-12-18T04:50:06;11.82;;;6.43;;
70199;SDS011;57587;55.688;37.600;2022-12-18T04:52:33;11.80;;;6.00;;
70199;SDS011;57587;55.688;37.600;2022-12-18T04:55:00;11.23;;;5.80;;
70199;SDS011;57587;55.688;37.600;2022-12-18T04:57:29;11.45;;;6.13;;
70199;SDS011;57587;55.688;37.600;2022-12-18T04:59:56;10.98;;;6.38;;
70199;SDS011;57587;55.688;37.600;2022-12-18T05:02:23;11.15;;;5.72;;
70199;SDS011;57587;55.688;37.600;2022-12-18T05:04:50;11.60;;;5.85;;
70199;SDS011;57587;55.688;37.600;2022-12-18T05:07:17;10.03;;;6.13;;
70199;SDS011;57587;55.688;37.600;2022-12-18T05:09:44;9.20;;;5.78;;
70199;SDS011;57587;55.688;37.600;2022-12-18T05:12:11;11.65;;;5.85;;
70199;SDS011;57587;55.688;37.600;2022-12-18T05:14:38;10.30;;;5.57;;
70199;SDS011;57587;55.688;37.600;2022-12-18T05:17:06;10.30;;;6.07;;
70199;SDS011;57587;55.688;37.600;2022-12-18T05:19:33;10.77;;;5.83;;
70199;SDS011;57587;55.688;37.600;2022-12-18T05:22:00;9.88;;;5.70;;
70199;SDS011;57587;55.688;37.600;2022-12-18T05:24:28;11.75;;;5.10;;
70199;SDS011;57587;55.688;37.600;2022-12-18T05:26:55;11.02;;;5.65;;
70199;SDS011;57587;55.688;37.600;2022-12-18T05:29:22;8.65;;;5.28;;
70199;SDS011;57587;55.688;37.600;2022-12-18T05:31:52;9.67;;;5.07;;
70199;SDS011;57587;55.688;37.600;2022-12-18T05:34:19;12.50;;;5.97;;
70199;SDS011;57587;55.688;37.600;2022-12-18T05:36:46;10.57;;;5.85;;
70199;SDS011;57587;55.688;37.600;2022-12-18T05:39:13;10.13;;;5.57;;
70199;SDS011;57587;55.688;37.600;2022-12-18T05:41:40;10.50;;;5.60;;
70199;SDS011;57587;55.688;37.600;2022-12-18T05:44:08;9.20;;;5.20;;
70199;SDS011;57587;55.688;37.600;2022-12-18T05:46:35;10.75;;;5.90;;
70199;SDS011;57587;55.688;37.600;2022-12-18T05:49:03;12.20;;;6.25;;
70199;SDS011;57587;55.688;37.600;2022-12-18T05:51:30;13.68;;;5.63;;
70199;SDS011;57587;55.688;37.600;2022-12-18T05:53:58;12.57;;;6.07;;
70199;SDS011;57587;55.688;37.600;2022-12-18T05:56:25;11.97;;;5.93;;
70199;SDS011;57587;55.688;37.600;2022-12-18T05:58:52;11.93;;;5.95;;
70199;SDS011;57587;55.688;37.600;2022-12-18T06:01:22;11.88;;;5.82;;
70199;SDS011;57587;55.688;37.600;2022-12-18T06:03:51;13.10;;;5.20;;
70199;SDS011;57587;55.688;37.600;2022-12-18T06:06:22;13.77;;;6.55;;
70199;SDS011;57587;55.688;37.600;2022-12-18T06:08:51;11.27;;;6.63;;
70199;SDS011;57587;55.688;37.600;2022-12-18T06:11:20;11.85;;;6.03;;
70199;SDS011;57587;55.688;37.600;2022-12-18T06:13:50;11.30;;;5.95;;
70199;SDS011;57587;55.688;37.600;2022-12-18T06:16:23;11.23;;;6.72;;
70199;SDS011;57587;55.688;37.600;2022-12-18T06:18:51;10.27;;;5.68;;
70199;SDS011;57587;55.688;37.600;2022-12-18T06:21:18;10.17;;;5.47;;
70199;SDS011;57587;55.688;37.600;2022-12-18T06:23:45;12.23;;;6.82;;
70199;SDS011;57587;55.688;37.600;2022-12-18T06:26:12;10.32;;;5.70;;
70199;SDS011;57587;55.688;37.600;2022-12-18T06:28:40;12.02;;;5.90;;
70199;SDS011;57587;55.688;37.600;2022-12-18T06:31:08;11.88;;;6.15;;
70199;SDS011;57587;55.688;37.600;2022-12-18T06:33:36;12.37;;;6.00;;
70199;SDS011;57587;55.688;37.600;2022-12-18T06:38:33;9.85;;;6.03;;
70199;SDS011;57587;55.688;37.600;2022-12-18T06:41:05;9.95;;;5.70;;
70199;SDS011;57587;55.688;37.600;2022-12-18T06:43:40;11.63;;;5.70;;
70199;SDS011;57587;55.688;37.600;2022-12-18T06:46:08;11.97;;;5.30;;
70199;SDS011;57587;55.688;37.600;2022-12-18T06:48:36;9.63;;;5.25;;
70199;SDS011;57587;55.688;37.600;2022-12-18T06:51:03;10.77;;;6.30;;
70199;SDS011;57587;55.688;37.600;2022-12-18T06:53:31;9.45;;;6.05;;
70199;SDS011;57587;55.688;37.600;2022-12-18T06:56:02;12.63;;;6.63;;
70199;SDS011;57587;55.688;37.600;2022-12-18T06:58:36;10.60;;;5.53;;
70199;SDS011;57587;55.688;37.600;2022-12-18T07:01:08;10.45;;;5.65;;
70199;SDS011;57587;55.688;37.600;2022-12-18T07:03:37;9.55;;;5.90;;
70199;SDS011;57587;55.688;37.600;2022-12-18T07:06:13;12.57;;;6.55;;
70199;SDS011;57587;55.688;37.600;2022-12-18T07:08:45;12.02;;;5.93;;
70199;SDS011;57587;55.688;37.600;2022-12-18T07:11:13;10.63;;;5.60;;
70199;SDS011;57587;55.688;37.600;2022-12-18T07:13:41;13.57;;;6.13;;
70199;SDS011;57587;55.688;37.600;2022-12-18T07:16:09;10.63;;;5.78;;
70199;SDS011;57587;55.688;37.600;2022-12-18T07:18:49;8.90;;;5.63;;
70199;SDS011;57587;55.688;37.600;2022-12-18T07:21:17;16.55;;;5.65;;
70199;SDS011;57587;55.688;37.600;2022-12-18T07:23:45;11.00;;;5.73;;
70199;SDS011;57587;55.688;37.600;2022-12-18T07:26:16;9.00;;;5.60;;
70199;SDS011;57587;55.688;37.600;2022-12-18T07:28:44;11.35;;;6.22;;
70199;SDS011;57587;55.688;37.600;2022-12-18T07:31:13;12.10;;;6.25;;
70199;SDS011;57587;55.688;37.600;2022-12-18T07:33:42;10.85;;;5.78;;
70199;SDS011;57587;55.688;37.600;2022-12-18T07:36:13;11.40;;;5.63;;
70199;SDS011;57587;55.688;37.600;2022-12-18T07:38:40;10.45;;;6.22;;
70199;SDS011;57587;55.688;37.600;2022-12-18T07:41:10;11.45;;;5.93;;
70199;SDS011;57587;55.688;37.600;2022-12-18T07:43:38;11.40;;;6.25;;
70199;SDS011;57587;55.688;37.600;2022-12-18T07:46:25;11.13;;;6.18;;
70199;SDS011;57587;55.688;37.600;2022-12-18T07:48:53;12.80;;;7.00;;
70199;SDS011;57587;55.688;37.600;2022-12-18T07:51:20;11.65;;;5.93;;
70199;SDS011;57587;55.688;37.600;2022-12-18T07:53:47;9.80;;;5.90;;
70199;SDS011;57587;55.688;37.600;2022-12-18T07:56:18;9.15;;;5.82;;
70199;SDS011;57587;55.688;37.600;2022-12-18T07:58:56;10.13;;;6.05;;
70199;SDS011;57587;55.688;37.600;2022-12-18T08:01:24;9.93;;;5.67;;
70199;SDS011;57587;55.688;37.600;2022-12-18T08:03:52;12.50;;;5.78;;
70199;SDS011;57587;55.688;37.600;2022-12-18T08:06:20;11.98;;;6.07;;
70199;SDS011;57587;55.688;37.600;2022-12-18T08:08:50;10.27;;;5.28;;
70199;SDS011;57587;55.688;37.600;2022-12-18T08:11:19;11.32;;;5.90;;
70199;SDS011;57587;55.688;37.600;2022-12-18T08:13:46;12.40;;;5.70;;
70199;SDS011;57587;55.688;37.600;2022-12-18T08:16:15;9.88;;;5.50;;
70199;SDS011;57587;55.688;37.600;2022-12-18T08:18:42;13.77;;;6.57;;
70199;SDS011;57587;55.688;37.600;2022-12-18T08:23:37;11.60;;;5.95;;
70199;SDS011;57587;55.688;37.600;2022-12-18T08:26:09;10.90;;;5.47;;
70199;SDS011;57587;55.688;37.600;2022-12-18T08:28:39;11.32;;;5.32;;
70199;SDS011;57587;55.688;37.600;2022-12-18T08:31:07;10.27;;;5.90;;
70199;SDS011;57587;55.688;37.600;2022-12-18T08:33:35;9.45;;;5.50;;
70199;SDS011;57587;55.688;37.600;2022-12-18T08:36:04;9.23;;;5.63;;
70199;SDS011;57587;55.688;37.600;2022-12-18T08:38:32;8.67;;;5.57;;
70199;SDS011;57587;55.688;37.600;2022-12-18T08:41:00;10.60;;;6.45;;
70199;SDS011;57587;55.688;37.600;2022-12-18T08:43:29;10.13;;;5.80;;
70199;SDS011;57587;55.688;37.600;2022-12-18T08:46:15;9.90;;;5.72;;
70199;SDS011;57587;55.688;37.600;2022-12-18T08:48:42;10.40;;;5.82;;
70199;SDS011;57587;55.688;37.600;2022-12-18T08:51:10;11.03;;;5.93;;
70199;SDS011;57587;55.688;37.600;2022-12-18T08:53:37;8.77;;;5.85;;
70199;SDS011;57587;55.688;37.600;2022-12-18T08:56:05;9.38;;;5.60;;
70199;SDS011;57587;55.688;37.600;2022-12-18T08:58:32;12.65;;;6.05;;
70199;SDS011;57587;55.688;37.600;2022-12-18T09:05:01;10.50;;;5.73;;
70199;SDS011;57587;55.688;37.600;2022-12-18T09:07:28;10.95;;;6.22;;
70199;SDS011;57587;55.688;37.600;2022-12-18T09:09:55;13.00;;;6.60;;
70199;SDS011;57587;55.688;37.600;2022-12-18T09:12:23;11.88;;;5.68;;
70199;SDS011;57587;55.688;37.600;2022-12-18T09:14:50;11.65;;;6.40;;
70199;SDS011;57587;55.688;37.600;2022-12-18T09:17:17;10.63;;;6.40;;
70199;SDS011;57587;55.688;37.600;2022-12-18T09:19:44;9.10;;;6.03;;
70199;SDS011;57587;55.688;37.600;2022-12-18T09:22:11;13.38;;;5.93;;
70199;SDS011;57587;55.688;37.600;2022-12-18T09:24:38;9.02;;;5.65;;
70199;SDS011;57587;55.688;37.600;2022-12-18T09:27:14;10.85;;;5.80;;
70199;SDS011;57587;55.688;37.600;2022-12-18T09:35:37;10.05;;;5.50;;
70199;SDS011;57587;55.688;37.600;2022-12-18T09:38:05;7.88;;;4.97;;
70199;SDS011;57587;55.688;37.600;2022-12-18T09:40:34;9.52;;;5.57;;
70199;SDS011;57587;55.688;37.600;2022-12-18T09:43:06;12.25;;;5.85;;
70199;SDS011;57587;55.688;37.600;2022-12-18T09:45:42;10.33;;;5.30;;
70199;SDS011;57587;55.688;37.600;2022-12-18T09:48:18;12.18;;;5.72;;
70199;SDS011;57587;55.688;37.600;2022-12-18T09:51:02;9.02;;;5.35;;
70199;SDS011;57587;55.688;37.600;2022-12-18T09:53:38;9.23;;;5.30;;
70199;SDS011;57587;55.688;37.600;2022-12-18T09:56:09;10.63;;;5.03;;
70199;SDS011;57587;55.688;37.600;2022-12-18T09:58:45;12.07;;;5.57;;
70199;SDS011;57587;55.688;37.600;2022-12-18T10:01:22;10.05;;;5.32;;
70199;SDS011;57587;55.688;37.600;2022-12-18T10:03:58;9.20;;;5.05;;
70199;SDS011;57587;55.688;37.600;2022-12-18T10:06:28;8.02;;;4.95;;
70199;SDS011;57587;55.688;37.600;2022-12-18T10:09:11;10.10;;;5.25;;
70199;SDS011;57587;55.688;37.600;2022-12-18T10:17:40;9.93;;;5.55;;
70199;SDS011;57587;55.688;37.600;2022-12-18T10:20:37;10.00;;;5.07;;
70199;SDS011;57587;55.688;37.600;2022-12-18T10:28:25;15.20;;;7.25;;
70199;SDS011;57587;55.688;37.600;2022-12-18T10:30:53;10.93;;;5.45;;
70199;SDS011;57587;55.688;37.600;2022-12-18T10:33:22;10.15;;;5.45;;
70199;SDS011;57587;55.688;37.600;2022-12-18T10:35:51;10.00;;;5.20;;
70199;SDS011;57587;55.688;37.600;2022-12-18T10:40:50;11.20;;;5.32;;
70199;SDS011;57587;55.688;37.600;2022-12-18T10:43:21;7.95;;;4.57;;
70199;SDS011;57587;55.688;37.600;2022-12-18T10:48:39;9.13;;;5.13;;
70199;SDS011;57587;55.688;37.600;2022-12-18T10:51:08;11.83;;;6.53;;
70199;SDS011;57587;55.688;37.600;2022-12-18T10:53:38;11.07;;;5.80;;
70199;SDS011;57587;55.688;37.600;2022-12-18T10:56:12;9.02;;;4.88;;
70199;SDS011;57587;55.688;37.600;2022-12-18T10:58:55;12.35;;;5.82;;
70199;SDS011;57587;55.688;37.600;2022-12-18T11:04:28;11.00;;;5.50;;
70199;SDS011;57587;55.688;37.600;2022-12-18T11:07:07;10.10;;;5.68;;
70199;SDS011;57587;55.688;37.600;2022-12-18T11:09:39;10.32;;;5.40;;
70199;SDS011;57587;55.688;37.600;2022-12-18T11:14:46;12.07;;;5.40;;
70199;SDS011;57587;55.688;37.600;2022-12-18T11:20:38;10.10;;;5.32;;
70199;SDS011;57587;55.688;37.600;2022-12-18T11:22:55;13.00;;;5.50;;
70199;SDS011;57587;55.688;37.600;2022-12-18T11:25:40;13.30;;;6.00;;
70199;SDS011;57587;55.688;37.600;2022-12-18T11:28:25;9.40;;;4.93;;
70199;SDS011;57587;55.688;37.600;2022-12-18T11:31:15;10.03;;;5.10;;
70199;SDS011;57587;55.688;37.600;2022-12-18T11:38:17;11.77;;;5.13;;
70199;SDS011;57587;55.688;37.600;2022-12-18T11:40:49;11.20;;;5.00;;
70199;SDS011;57587;55.688;37.600;2022-12-18T11:43:25;10.82;;;5.30;;
70199;SDS011;57587;55.688;37.600;2022-12-18T11:46:07;8.13;;;4.90;;
70199;SDS011;57587;55.688;37.600;2022-12-18T11:48:52;10.48;;;5.38;;
70199;SDS011;57587;55.688;37.600;2022-12-18T11:51:33;10.02;;;5.18;;
70199;SDS011;57587;55.688;37.600;2022-12-18T11:54:13;7.85;;;4.78;;
70199;SDS011;57587;55.688;37.600;2022-12-18T12:16:59;9.52;;;5.15;;
70199;SDS011;57587;55.688;37.600;2022-12-18T12:36:24;9.15;;;4.43;;
70199;SDS011;57587;55.688;37.600;2022-12-18T12:39:01;6.72;;;4.10;;
70199;SDS011;57587;55.688;37.600;2022-12-18T12:41:32;11.57;;;4.60;;
70199;SDS011;57587;55.688;37.600;2022-12-18T12:44:30;8.30;;;4.63;;
70199;SDS011;57587;55.688;37.600;2022-12-18T12:47:05;9.13;;;4.78;;
70199;SDS011;57587;55.688;37.600;2022-12-18T12:49:42;6.72;;;4.63;;
70199;SDS011;57587;55.688;37.600;2022-12-18T12:52:38;8.52;;;3.80;;
70199;SDS011;57587;55.688;37.600;2022-12-18T12:55:17;8.53;;;4.20;;
70199;SDS011;57587;55.688;37.600;2022-12-18T13:03:53;7.40;;;4.13;;
70199;SDS011;57587;55.688;37.600;2022-12-18T13:06:27;8.48;;;4.55;;
70199;SDS011;57587;55.688;37.600;2022-12-18T13:09:09;7.50;;;4.67;;
70199;SDS011;57587;55.688;37.600;2022-12-18T13:11:41;6.60;;;4.20;;
70199;SDS011;57587;55.688;37.600;2022-12-18T13:19:50;10.23;;;4.78;;
70199;SDS011;57587;55.688;37.600;2022-12-18T13:22:42;9.67;;;5.03;;
70199;SDS011;57587;55.688;37.600;2022-12-18T13:40:53;11.93;;;6.05;;
70199;SDS011;57587;55.688;37.600;2022-12-18T13:46:17;12.93;;;6.05;;
70199;SDS011;57587;55.688;37.600;2022-12-18T13:49:26;13.83;;;5.93;;
70199;SDS011;57587;55.688;37.600;2022-12-18T13:52:38;16.83;;;6.50;;
70199;SDS011;57587;55.688;37.600;2022-12-18T13:55:04;13.82;;;6.93;;
70199;SDS011;57587;55.688;37.600;2022-12-18T13:57:35;14.77;;;6.60;;
70199;SDS011;57587;55.688;37.600;2022-12-18T14:02:55;16.27;;;7.73;;
70199;SDS011;57587;55.688;37.600;2022-12-18T14:05:25;14.65;;;7.35;;
70199;SDS011;57587;55.688;37.600;2022-12-18T14:07:55;16.33;;;7.88;;
70199;SDS011;57587;55.688;37.600;2022-12-18T14:10:31;19.02;;;7.35;;
70199;SDS011;57587;55.688;37.600;2022-12-18T14:13:15;19.20;;;7.20;;
70199;SDS011;57587;55.688;37.600;2022-12-18T14:15:51;18.37;;;7.13;;
70199;SDS011;57587;55.688;37.600;2022-12-18T14:18:34;12.60;;;6.68;;
70199;SDS011;57587;55.688;37.600;2022-12-18T14:21:15;15.90;;;7.00;;
70199;SDS011;57587;55.688;37.600;2022-12-18T14:24:04;18.08;;;7.38;;
70199;SDS011;57587;55.688;37.600;2022-12-18T14:26:45;18.95;;;7.80;;
70199;SDS011;57587;55.688;37.600;2022-12-18T14:29:26;16.30;;;6.87;;
70199;SDS011;57587;55.688;37.600;2022-12-18T14:32:14;16.55;;;7.28;;
70199;SDS011;57587;55.688;37.600;2022-12-18T14:34:46;18.17;;;7.55;;
70199;SDS011;57587;55.688;37.600;2022-12-18T14:37:20;14.25;;;6.43;;
70199;SDS011;57587;55.688;37.600;2022-12-18T14:40:02;14.55;;;7.22;;
70199;SDS011;57587;55.688;37.600;2022-12-18T14:42:38;16.43;;;6.60;;
70199;SDS011;57587;55.688;37.600;2022-12-18T14:45:31;15.88;;;8.30;;
70199;SDS011;57587;55.688;37.600;2022-12-18T14:48:09;13.48;;;6.63;;
70199;SDS011;57587;55.688;37.600;2022-12-18T14:50:55;13.85;;;6.28;;
70199;SDS011;57587;55.688;37.600;2022-12-18T14:53:24;15.50;;;6.15;;
70199;SDS011;57587;55.688;37.600;2022-12-18T14:56:12;11.50;;;5.20;;
70199;SDS011;57587;55.688;37.600;2022-12-18T14:58:46;9.20;;;5.80;;
70199;SDS011;57587;55.688;37.600;2022-12-18T15:01:19;12.27;;;6.47;;
70199;SDS011;57587;55.688;37.600;2022-12-18T15:03:50;10.18;;;5.70;;
70199;SDS011;57587;55.688;37.600;2022-12-18T15:06:24;10.32;;;5.65;;
70199;SDS011;57587;55.688;37.600;2022-12-18T15:08:54;11.63;;;5.73;;
70199;SDS011;57587;55.688;37.600;2022-12-18T15:12:04;10.82;;;5.60;;
70199;SDS011;57587;55.688;37.600;2022-12-18T15:14:22;10.18;;;5.47;;
70199;SDS011;57587;55.688;37.600;2022-12-18T15:16:55;12.98;;;5.35;;
70199;SDS011;57587;55.688;37.600;2022-12-18T15:19:42;10.75;;;4.85;;
70199;SDS011;57587;55.688;37.600;2022-12-18T15:24:53;11.48;;;4.85;;
70199;SDS011;57587;55.688;37.600;2022-12-18T15:27:28;11.27;;;4.72;;
70199;SDS011;57587;55.688;37.600;2022-12-18T15:30:02;7.32;;;4.50;;
70199;SDS011;57587;55.688;37.600;2022-12-18T15:32:36;8.35;;;4.68;;
70199;SDS011;57587;55.688;37.600;2022-12-18T15:37:40;8.68;;;5.32;;
70199;SDS011;57587;55.688;37.600;2022-12-18T15:40:11;9.30;;;4.70;;
70199;SDS011;57587;55.688;37.600;2022-12-18T15:42:43;9.25;;;4.95;;
70199;SDS011;57587;55.688;37.600;2022-12-18T15:45:30;8.88;;;4.85;;
70199;SDS011;57587;55.688;37.600;2022-12-18T15:47:57;7.93;;;4.47;;
70199;SDS011;57587;55.688;37.600;2022-12-18T15:50:25;10.43;;;4.90;;
70199;SDS011;57587;55.688;37.600;2022-12-18T15:52:54;8.60;;;5.03;;
70199;SDS011;57587;55.688;37.600;2022-12-18T15:55:23;8.35;;;4.80;;
70199;SDS011;57587;55.688;37.600;2022-12-18T15:58:09;10.48;;;5.55;;
70199;SDS011;57587;55.688;37.600;2022-12-18T16:00:39;10.83;;;5.83;;
70199;SDS011;57587;55.688;37.600;2022-12-18T16:03:08;11.10;;;5.18;;
70199;SDS011;57587;55.688;37.600;2022-12-18T16:05:36;11.02;;;5.63;;
70199;SDS011;57587;55.688;37.600;2022-12-18T16:08:03;9.63;;;4.90;;
70199;SDS011;57587;55.688;37.600;2022-12-18T16:10:30;10.23;;;5.10;;
70199;SDS011;57587;55.688;37.600;2022-12-18T16:12:58;9.43;;;5.00;;
70199;SDS011;57587;55.688;37.600;2022-12-18T16:15:25;8.82;;;4.80;;
70199;SDS011;57587;55.688;37.600;2022-12-18T16:17:52;9.68;;;4.72;;
70199;SDS011;57587;55.688;37.600;2022-12-18T16:20:20;8.98;;;5.03;;
70199;SDS011;57587;55.688;37.600;2022-12-18T16:22:48;9.02;;;5.22;;
70199;SDS011;57587;55.688;37.600;2022-12-18T16:25:18;8.70;;;4.87;;
70199;SDS011;57587;55.688;37.600;2022-12-18T16:27:58;8.18;;;5.05;;
70199;SDS011;57587;55.688;37.600;2022-12-18T16:30:37;9.32;;;4.70;;
70199;SDS011;57587;55.688;37.600;2022-12-18T16:33:04;7.80;;;4.57;;
70199;SDS011;57587;55.688;37.600;2022-12-18T16:35:33;10.35;;;5.53;;
70199;SDS011;57587;55.688;37.600;2022-12-18T16:38:05;9.90;;;5.40;;
70199;SDS011;57587;55.688;37.600;2022-12-18T16:40:32;11.23;;;5.75;;
70199;SDS011;57587;55.688;37.600;2022-12-18T16:42:59;9.75;;;5.25;;
70199;SDS011;57587;55.688;37.600;2022-12-18T16:45:26;13.07;;;5.82;;
70199;SDS011;57587;55.688;37.600;2022-12-18T16:47:59;10.85;;;5.93;;
70199;SDS011;57587;55.688;37.600;2022-12-18T16:50:26;14.63;;;6.40;;
70199;SDS011;57587;55.688;37.600;2022-12-18T16:52:53;12.25;;;5.97;;
70199;SDS011;57587;55.688;37.600;2022-12-18T16:55:21;11.15;;;5.82;;
70199;SDS011;57587;55.688;37.600;2022-12-18T16:57:48;12.27;;;6.38;;
70199;SDS011;57587;55.688;37.600;2022-12-18T17:00:15;11.68;;;6.05;;
70199;SDS011;57587;55.688;37.600;2022-12-18T17:02:42;10.37;;;5.63;;
70199;SDS011;57587;55.688;37.600;2022-12-18T17:05:10;11.13;;;6.20;;
70199;SDS011;57587;55.688;37.600;2022-12-18T17:07:37;10.90;;;5.70;;
70199;SDS011;57587;55.688;37.600;2022-12-18T17:10:04;9.60;;;5.63;;
70199;SDS011;57587;55.688;37.600;2022-12-18T17:12:31;11.65;;;6.10;;
70199;SDS011;57587;55.688;37.600;2022-12-18T17:14:58;11.23;;;5.83;;
70199;SDS011;57587;55.688;37.600;2022-12-18T17:17:26;12.32;;;5.57;;
70199;SDS011;57587;55.688;37.600;2022-12-18T17:19:53;11.32;;;5.57;;
70199;SDS011;57587;55.688;37.600;2022-12-18T17:22:20;10.73;;;5.80;;
70199;SDS011;57587;55.688;37.600;2022-12-18T17:24:49;10.65;;;5.65;;
70199;SDS011;57587;55.688;37.600;2022-12-18T17:27:16;12.97;;;6.33;;
70199;SDS011;57587;55.688;37.600;2022-12-18T17:29:43;10.38;;;5.90;;
70199;SDS011;57587;55.688;37.600;2022-12-18T17:32:14;9.30;;;5.57;;
70199;SDS011;57587;55.688;37.600;2022-12-18T17:34:42;9.80;;;5.18;;
70199;SDS011;57587;55.688;37.600;2022-12-18T17:37:09;10.52;;;5.57;;
70199;SDS011;57587;55.688;37.600;2022-12-18T17:39:36;13.50;;;5.63;;
70199;SDS011;57587;55.688;37.600;2022-12-18T17:42:04;11.23;;;6.05;;
70199;SDS011;57587;55.688;37.600;2022-12-18T17:44:34;10.32;;;5.50;;
70199;SDS011;57587;55.688;37.600;2022-12-18T17:47:01;13.60;;;5.93;;
70199;SDS011;57587;55.688;37.600;2022-12-18T17:49:28;9.50;;;5.97;;
70199;SDS011;57587;55.688;37.600;2022-12-18T17:51:56;10.63;;;6.43;;
70199;SDS011;57587;55.688;37.600;2022-12-18T17:54:23;11.57;;;6.40;;
70199;SDS011;57587;55.688;37.600;2022-12-18T17:56:50;10.90;;;6.18;;
70199;SDS011;57587;55.688;37.600;2022-12-18T17:59:17;12.45;;;6.10;;
70199;SDS011;57587;55.688;37.600;2022-12-18T18:01:44;8.88;;;5.35;;
70199;SDS011;57587;55.688;37.600;2022-12-18T18:04:12;11.87;;;5.43;;
70199;SDS011;57587;55.688;37.600;2022-12-18T18:06:40;11.70;;;6.38;;
70199;SDS011;57587;55.688;37.600;2022-12-18T18:09:07;11.98;;;6.72;;
70199;SDS011;57587;55.688;37.600;2022-12-18T18:11:42;12.60;;;6.15;;
70199;SDS011;57587;55.688;37.600;2022-12-18T18:14:28;15.00;;;6.57;;
70199;SDS011;57587;55.688;37.600;2022-12-18T18:16:55;10.83;;;5.60;;
70199;SDS011;57587;55.688;37.600;2022-12-18T18:19:30;13.40;;;7.15;;
70199;SDS011;57587;55.688;37.600;2022-12-18T18:21:58;12.98;;;6.78;;
70199;SDS011;57587;55.688;37.600;2022-12-18T18:24:28;11.65;;;6.95;;
70199;SDS011;57587;55.688;37.600;2022-12-18T18:26:55;10.35;;;6.32;;
70199;SDS011;57587;55.688;37.600;2022-12-18T18:29:25;16.87;;;7.73;;
70199;SDS011;57587;55.688;37.600;2022-12-18T18:31:56;15.07;;;6.47;;
70199;SDS011;57587;55.688;37.600;2022-12-18T18:34:24;14.95;;;7.07;;
70199;SDS011;57587;55.688;37.600;2022-12-18T18:36:53;15.07;;;6.95;;
70199;SDS011;57587;55.688;37.600;2022-12-18T18:39:23;11.57;;;6.30;;
70199;SDS011;57587;55.688;37.600;2022-12-18T18:41:51;15.53;;;6.57;;
70199;SDS011;57587;55.688;37.600;2022-12-18T18:44:19;14.73;;;6.60;;
70199;SDS011;57587;55.688;37.600;2022-12-18T18:46:55;12.38;;;6.78;;
70199;SDS011;57587;55.688;37.600;2022-12-18T18:49:24;15.07;;;6.65;;
70199;SDS011;57587;55.688;37.600;2022-12-18T18:51:54;14.13;;;7.00;;
70199;SDS011;57587;55.688;37.600;2022-12-18T18:54:22;10.97;;;6.17;;
70199;SDS011;57587;55.688;37.600;2022-12-18T18:56:50;14.10;;;7.15;;
70199;SDS011;57587;55.688;37.600;2022-12-18T18:59:37;11.75;;;6.57;;
70199;SDS011;57587;55.688;37.600;2022-12-18T19:02:04;12.50;;;6.47;;
70199;SDS011;57587;55.688;37.600;2022-12-18T19:04:32;13.85;;;6.72;;
70199;SDS011;57587;55.688;37.600;2022-12-18T19:07:00;17.43;;;7.70;;
70199;SDS011;57587;55.688;37.600;2022-12-18T19:09:27;12.80;;;6.85;;
70199;SDS011;57587;55.688;37.600;2022-12-18T19:11:55;12.68;;;7.68;;
70199;SDS011;57587;55.688;37.600;2022-12-18T19:14:41;17.45;;;7.43;;
70199;SDS011;57587;55.688;37.600;2022-12-18T19:17:08;16.13;;;7.60;;
70199;SDS011;57587;55.688;37.600;2022-12-18T19:19:36;15.40;;;7.23;;
70199;SDS011;57587;55.688;37.600;2022-12-18T19:22:06;16.25;;;6.90;;
70199;SDS011;57587;55.688;37.600;2022-12-18T19:24:35;16.35;;;7.38;;